createdAt,value
2018-12-22T00:02:01.561Z,95.00
2018-12-22T00:04:30.323Z,92.90
2018-12-22T00:06:59.044Z,88.73
2018-12-22T00:09:27.793Z,87.80
2018-12-22T00:11:56.540Z,89.93
2018-12-22T00:14:25.230Z,92.10
2018-12-22T00:16:54.059Z,86.97
2018-12-22T00:19:22.759Z,89.00
2018-12-22T00:21:51.483Z,81.80
2018-12-22T00:24:20.265Z,88.73
2018-12-22T00:26:49.020Z,86.60
2018-12-22T00:29:17.685Z,90.30
2018-12-22T00:31:46.330Z,81.67
2018-12-22T00:34:15.075Z,80.43
2018-12-22T00:36:43.837Z,80.27
2018-12-22T00:39:12.619Z,81.17
2018-12-22T00:41:41.402Z,86.83
2018-12-22T00:44:10.147Z,81.33
2018-12-22T00:46:38.897Z,86.70
2018-12-22T00:49:07.693Z,84.40
2018-12-22T00:51:36.504Z,92.80
2018-12-22T00:54:05.547Z,83.00
2018-12-22T00:56:34.326Z,81.47
2018-12-22T00:59:03.040Z,88.53
2018-12-22T01:01:31.804Z,86.27
2018-12-22T01:04:00.594Z,81.63
2018-12-22T01:06:29.380Z,92.33
2018-12-22T01:08:58.582Z,77.10
2018-12-22T01:11:27.419Z,86.87
2018-12-22T01:13:56.183Z,86.93
2018-12-22T01:16:24.862Z,78.20
2018-12-22T01:18:53.606Z,79.77
2018-12-22T01:21:22.349Z,76.93
2018-12-22T01:23:51.889Z,75.23
2018-12-22T01:26:21.420Z,74.57
2018-12-22T01:28:50.168Z,76.37
2018-12-22T01:31:18.829Z,75.60
2018-12-22T01:33:47.540Z,77.00
2018-12-22T01:36:16.342Z,75.50
2018-12-22T01:38:45.110Z,73.87
2018-12-22T01:41:13.887Z,73.47
2018-12-22T01:43:42.632Z,73.37
2018-12-22T01:46:11.378Z,74.97
2018-12-22T01:48:40.086Z,72.43
2018-12-22T01:51:08.861Z,73.23
2018-12-22T01:53:37.690Z,74.80
2018-12-22T01:56:06.436Z,70.70
2018-12-22T01:58:35.188Z,72.23
2018-12-22T02:01:04.412Z,68.87
2018-12-22T02:03:33.172Z,69.53
2018-12-22T02:06:02.002Z,72.87
2018-12-22T02:08:30.763Z,76.33
2018-12-22T02:10:59.511Z,71.47
2018-12-22T02:13:28.320Z,66.37
2018-12-22T02:15:57.109Z,72.90
2018-12-22T02:18:25.887Z,76.60
2018-12-22T02:20:54.579Z,69.20
2018-12-22T02:23:23.302Z,64.87
2018-12-22T02:25:52.230Z,68.33
2018-12-22T02:28:20.964Z,66.60
2018-12-22T02:30:50.032Z,65.33
2018-12-22T02:33:18.813Z,62.07
2018-12-22T02:35:47.676Z,67.57
2018-12-22T02:38:16.439Z,69.07
2018-12-22T02:40:45.222Z,65.37
2018-12-22T02:43:14.007Z,66.80
2018-12-22T02:45:42.730Z,65.33
2018-12-22T02:48:11.533Z,62.37
2018-12-22T02:50:40.232Z,63.97
2018-12-22T02:53:09.122Z,68.93
2018-12-22T02:55:37.941Z,68.53
2018-12-22T02:58:06.926Z,66.73
2018-12-22T03:00:35.628Z,62.73
2018-12-22T03:03:04.885Z,65.50
2018-12-22T03:05:33.693Z,59.90
2018-12-22T03:08:02.422Z,67.80
2018-12-22T03:10:31.222Z,68.33
2018-12-22T03:12:59.913Z,67.30
2018-12-22T03:15:28.624Z,61.90
2018-12-22T03:17:57.352Z,65.00
2018-12-22T03:20:26.101Z,68.57
2018-12-22T03:22:54.814Z,64.93
2018-12-22T03:25:23.568Z,66.03
2018-12-22T03:27:52.258Z,67.33
2018-12-22T03:30:21.016Z,70.73
2018-12-22T03:32:49.851Z,64.50
2018-12-22T03:35:19.266Z,65.57
2018-12-22T03:37:48.015Z,64.77
2018-12-22T03:40:16.818Z,61.47
2018-12-22T03:42:45.570Z,67.53
2018-12-22T03:45:14.339Z,66.63
2018-12-22T03:47:43.133Z,65.00
2018-12-22T03:50:11.901Z,61.87
2018-12-22T03:52:40.634Z,61.50
2018-12-22T03:55:09.757Z,60.77
2018-12-22T03:57:38.466Z,61.33
2018-12-22T04:00:11.471Z,63.17
2018-12-22T04:02:40.194Z,61.20
2018-12-22T04:05:09.025Z,65.47
2018-12-22T04:07:37.807Z,64.17
2018-12-22T04:10:07.504Z,63.37
2018-12-22T04:12:36.231Z,63.23
2018-12-22T04:15:05.957Z,63.90
2018-12-22T04:17:34.821Z,63.53
2018-12-22T04:20:04.871Z,61.13
2018-12-22T04:22:33.850Z,66.40
2018-12-22T04:25:02.591Z,65.10
2018-12-22T04:27:31.312Z,65.50
2018-12-22T04:30:00.020Z,65.70
2018-12-22T04:32:28.744Z,63.97
2018-12-22T04:34:57.448Z,62.43
2018-12-22T04:37:26.272Z,65.63
2018-12-22T04:39:54.999Z,65.37
2018-12-22T04:42:23.750Z,65.67
2018-12-22T04:44:52.444Z,61.90
2018-12-22T04:47:21.306Z,62.63
2018-12-22T04:49:50.077Z,64.17
2018-12-22T04:52:18.826Z,66.97
2018-12-22T04:54:47.497Z,64.03
2018-12-22T04:57:16.282Z,66.37
2018-12-22T04:59:45.004Z,68.97
2018-12-22T05:02:13.726Z,67.60
2018-12-22T05:04:42.443Z,67.50
2018-12-22T05:07:11.159Z,65.67
2018-12-22T05:09:39.845Z,65.63
2018-12-22T05:12:08.663Z,62.83
2018-12-22T05:14:37.372Z,62.47
2018-12-22T05:17:06.188Z,66.93
2018-12-22T05:19:34.972Z,65.97
2018-12-22T05:22:03.686Z,66.27
2018-12-22T05:24:32.477Z,66.30
2018-12-22T05:27:01.246Z,65.73
2018-12-22T05:29:29.994Z,69.40
2018-12-22T05:31:58.706Z,65.13
2018-12-22T05:34:27.383Z,63.60
2018-12-22T05:36:56.169Z,65.57
2018-12-22T05:39:24.939Z,64.43
2018-12-22T05:41:53.702Z,64.60
2018-12-22T05:44:22.594Z,71.43
2018-12-22T05:46:51.333Z,65.57
2018-12-22T05:49:23.300Z,70.33
2018-12-22T05:51:51.993Z,70.80
2018-12-22T05:54:20.810Z,73.23
2018-12-22T05:56:49.568Z,71.47
2018-12-22T05:59:18.300Z,69.03
2018-12-22T06:01:47.001Z,75.30
2018-12-22T06:04:15.704Z,76.23
2018-12-22T06:06:44.461Z,71.27
2018-12-22T06:09:13.219Z,77.23
2018-12-22T06:11:41.957Z,73.00
2018-12-22T06:14:10.706Z,76.93
2018-12-22T06:16:39.478Z,73.00
2018-12-22T06:19:08.435Z,79.27
2018-12-22T06:21:37.259Z,72.77
2018-12-22T06:24:05.954Z,74.97
2018-12-22T06:26:34.681Z,72.10
2018-12-22T06:29:03.472Z,73.57
2018-12-22T06:31:32.202Z,71.03
2018-12-22T06:34:00.870Z,67.37
2018-12-22T06:36:29.692Z,69.43
2018-12-22T06:38:58.468Z,65.07
2018-12-22T06:41:27.287Z,62.47
2018-12-22T06:43:55.980Z,61.60
2018-12-22T06:46:24.680Z,63.67
2018-12-22T06:48:53.386Z,62.40
2018-12-22T06:51:22.158Z,64.77
2018-12-22T06:53:50.899Z,66.53
2018-12-22T06:56:19.761Z,67.33
2018-12-22T06:58:48.578Z,67.80
2018-12-22T07:01:17.290Z,70.43
2018-12-22T07:03:46.294Z,64.67
2018-12-22T07:06:15.054Z,71.10
2018-12-22T07:08:43.723Z,72.40
2018-12-22T07:11:12.490Z,65.80
2018-12-22T07:13:41.179Z,71.77
2018-12-22T07:16:10.105Z,69.63
2018-12-22T07:18:38.800Z,71.73
2018-12-22T07:21:07.572Z,66.53
2018-12-22T07:23:36.462Z,69.13
2018-12-22T07:26:05.604Z,67.37
2018-12-22T07:28:34.528Z,70.17
2018-12-22T07:31:03.345Z,68.37
2018-12-22T07:33:32.745Z,69.80
2018-12-22T07:36:01.439Z,70.83
2018-12-22T07:38:30.241Z,71.00
2018-12-22T07:40:59.039Z,71.27
2018-12-22T07:43:27.865Z,70.93
2018-12-22T07:45:56.607Z,72.33
2018-12-22T07:48:25.349Z,75.07
2018-12-22T07:50:54.078Z,73.10
2018-12-22T07:53:22.828Z,70.70
2018-12-22T07:55:51.755Z,76.60
2018-12-22T07:58:20.609Z,72.17
2018-12-22T08:00:49.436Z,73.20
2018-12-22T08:03:18.277Z,73.83
2018-12-22T08:05:47.300Z,72.93
2018-12-22T08:08:16.098Z,76.47
2018-12-22T08:10:44.778Z,76.20
2018-12-22T08:13:13.575Z,73.87
2018-12-22T08:15:43.143Z,79.33
2018-12-22T08:18:12.692Z,74.27
2018-12-22T08:20:41.467Z,75.17
2018-12-22T08:23:10.301Z,73.87
2018-12-22T08:25:39.071Z,79.47
2018-12-22T08:28:07.800Z,75.63
2018-12-22T08:30:43.510Z,76.27
2018-12-22T08:33:07.414Z,80.80
2018-12-22T08:35:36.158Z,80.23
2018-12-22T08:38:05.000Z,84.87
2018-12-22T08:40:33.778Z,77.50
2018-12-22T08:43:02.677Z,78.80
2018-12-22T08:45:31.428Z,79.87
2018-12-22T08:50:38.256Z,86.23
2018-12-22T08:53:07.420Z,95.90
2018-12-22T08:55:36.133Z,92.80
2018-12-22T08:58:04.890Z,95.03
2018-12-22T09:00:33.664Z,89.40
2018-12-22T09:03:02.451Z,91.23
2018-12-22T09:05:31.194Z,95.20
2018-12-22T09:07:59.919Z,92.07
2018-12-22T09:10:29.089Z,98.60
2018-12-22T09:12:57.924Z,96.17
2018-12-22T09:15:26.665Z,100.43
2018-12-22T09:17:55.565Z,99.07
2018-12-22T09:20:24.408Z,103.73
2018-12-22T09:22:53.254Z,107.20
2018-12-22T09:25:22.085Z,111.00
2018-12-22T09:27:50.867Z,107.60
2018-12-22T09:30:19.786Z,108.63
2018-12-22T09:32:48.440Z,109.83
2018-12-22T09:35:17.160Z,114.70
2018-12-22T09:37:46.424Z,110.70
2018-12-22T09:40:15.166Z,109.57
2018-12-22T09:42:43.881Z,111.23
2018-12-22T09:45:12.639Z,114.63
2018-12-22T09:47:41.380Z,115.23
2018-12-22T09:50:13.195Z,115.90
2018-12-22T09:52:42.217Z,113.67
2018-12-22T09:55:10.939Z,117.73
2018-12-22T09:57:39.699Z,112.83
2018-12-22T10:00:13.221Z,110.87
2018-12-22T10:02:42.350Z,113.57
2018-12-22T10:05:11.061Z,116.30
2018-12-22T10:07:39.854Z,113.23
2018-12-22T10:10:14.408Z,113.20
2018-12-22T10:12:43.135Z,113.87
2018-12-22T10:15:11.916Z,112.93
2018-12-22T10:17:40.865Z,111.83
2018-12-22T10:20:09.909Z,106.50
2018-12-22T10:22:38.644Z,115.60
2018-12-22T10:25:10.355Z,112.97
2018-12-22T10:27:39.128Z,113.63
2018-12-22T10:30:15.683Z,117.10
2018-12-22T10:32:44.482Z,116.97
2018-12-22T10:35:23.557Z,125.17
2018-12-22T10:37:52.324Z,127.97
2018-12-22T10:40:21.165Z,125.30
2018-12-22T10:42:49.965Z,125.50
2018-12-22T10:45:18.687Z,124.13
2018-12-22T10:47:47.446Z,122.73
2018-12-22T10:50:16.254Z,126.57
2018-12-22T10:52:44.997Z,131.37
2018-12-22T10:55:13.696Z,128.73
2018-12-22T10:57:42.471Z,128.93
2018-12-22T11:00:14.188Z,127.73
2018-12-22T11:02:43.002Z,132.60
2018-12-22T11:05:13.367Z,130.40
2018-12-22T11:07:43.202Z,131.13
2018-12-22T11:10:20.441Z,129.50
2018-12-22T11:12:49.184Z,131.83
2018-12-22T11:15:17.945Z,129.33
2018-12-22T11:17:47.145Z,132.00
2018-12-22T11:20:16.335Z,129.23
2018-12-22T11:22:45.050Z,131.53
2018-12-22T11:25:16.768Z,122.93
2018-12-22T11:27:46.004Z,125.47
2018-12-22T11:30:19.712Z,126.77
2018-12-22T11:32:48.562Z,130.00
2018-12-22T11:35:17.428Z,128.83
2018-12-22T11:37:46.153Z,128.70
2018-12-22T11:40:14.873Z,127.00
2018-12-22T11:42:47.669Z,130.60
2018-12-22T11:45:14.388Z,132.17
2018-12-22T11:47:57.089Z,133.07
2018-12-22T11:50:27.317Z,138.87
2018-12-22T11:52:56.218Z,139.20
2018-12-22T11:55:24.987Z,145.07
2018-12-22T11:57:54.042Z,137.17
2018-12-22T12:00:22.862Z,136.90
2018-12-22T12:02:51.661Z,136.17
2018-12-22T12:05:20.364Z,135.00
2018-12-22T12:07:49.140Z,137.33
2018-12-22T12:10:17.972Z,134.63
2018-12-22T12:12:46.844Z,134.33
2018-12-22T12:15:19.451Z,138.27
2018-12-22T12:18:30.479Z,134.67
2018-12-22T12:20:59.236Z,137.63
2018-12-22T12:23:28.132Z,132.67
2018-12-22T12:25:57.033Z,129.73
2018-12-22T12:28:26.612Z,136.37
2018-12-22T12:31:24.501Z,136.57
2018-12-22T12:34:23.436Z,128.93
2018-12-22T12:37:23.208Z,121.60
2018-12-22T12:43:29.973Z,113.90
2018-12-22T12:46:28.788Z,103.90
2018-12-22T12:49:27.493Z,102.90
2018-12-22T12:52:29.440Z,103.00
2018-12-22T12:55:29.141Z,107.77
2018-12-22T12:58:28.063Z,108.20
2018-12-22T13:01:27.083Z,108.63
2018-12-22T13:04:26.945Z,115.60
2018-12-22T13:07:25.701Z,113.67
2018-12-22T13:10:26.066Z,120.37
2018-12-22T13:13:32.847Z,112.97
2018-12-22T13:16:31.593Z,117.17
2018-12-22T13:19:30.063Z,107.63
2018-12-22T13:22:29.738Z,103.97
2018-12-22T13:25:29.636Z,101.00
2018-12-22T13:28:29.065Z,103.10
2018-12-22T13:31:29.954Z,108.60
2018-12-22T13:34:28.799Z,103.70
2018-12-22T13:37:26.736Z,112.27
2018-12-22T13:40:26.275Z,109.10
2018-12-22T13:43:25.025Z,102.73
2018-12-22T13:46:23.956Z,109.17
2018-12-22T13:49:22.077Z,112.60
2018-12-22T13:52:22.652Z,107.57
2018-12-22T13:55:23.372Z,116.30
2018-12-22T13:58:21.280Z,122.27
2018-12-22T14:01:24.160Z,130.17
2018-12-22T14:04:23.992Z,139.50
2018-12-22T14:06:52.722Z,143.07
2018-12-22T14:09:21.438Z,142.80
2018-12-22T14:11:50.235Z,142.83
2018-12-22T14:14:21.886Z,140.60
2018-12-22T14:16:54.667Z,135.07
2018-12-22T14:19:23.604Z,136.13
2018-12-22T14:21:52.640Z,141.30
2018-12-22T14:24:42.047Z,137.93
2018-12-22T14:27:11.516Z,139.60
2018-12-22T14:29:40.203Z,134.07
2018-12-22T14:32:08.949Z,134.30
2018-12-22T14:34:56.073Z,141.87
2018-12-22T14:37:24.830Z,138.37
2018-12-22T14:39:53.500Z,145.47
2018-12-22T14:42:22.353Z,138.23
2018-12-22T14:44:51.278Z,145.93
2018-12-22T14:47:20.172Z,147.60
2018-12-22T14:49:48.908Z,145.20
2018-12-22T14:52:17.649Z,143.73
2018-12-22T14:54:46.593Z,158.17
2018-12-22T14:57:15.660Z,155.23
2018-12-22T14:59:45.742Z,160.03
2018-12-22T15:02:14.527Z,154.03
2018-12-22T15:04:43.276Z,156.23
2018-12-22T15:07:12.044Z,155.43
2018-12-22T15:09:40.745Z,167.40
2018-12-22T15:12:09.551Z,157.83
2018-12-22T15:14:38.250Z,157.70
2018-12-22T15:17:07.604Z,151.83
2018-12-22T15:19:38.354Z,158.43
2018-12-22T15:22:07.103Z,157.33
2018-12-22T15:24:36.467Z,161.83
2018-12-22T15:27:05.200Z,163.43
2018-12-22T15:29:33.896Z,151.23
2018-12-22T15:32:02.585Z,147.73
2018-12-22T15:34:31.293Z,152.87
2018-12-22T15:37:00.066Z,152.93
2018-12-22T15:39:28.759Z,159.27
2018-12-22T15:41:57.510Z,162.07
2018-12-22T15:44:26.249Z,162.80
2018-12-22T15:46:55.000Z,170.83
2018-12-22T15:49:24.215Z,168.57
2018-12-22T15:51:53.018Z,170.23
2018-12-22T15:54:21.774Z,167.67
2018-12-22T15:56:50.470Z,166.63
2018-12-22T15:59:19.673Z,198.10
2018-12-22T16:01:48.375Z,197.67
2018-12-22T16:04:17.079Z,185.77
2018-12-22T16:06:45.876Z,172.73
2018-12-22T16:09:14.607Z,169.33
2018-12-22T16:11:43.326Z,159.13
2018-12-22T16:14:12.076Z,167.77
2018-12-22T16:16:40.789Z,161.73
2018-12-22T16:19:09.734Z,160.93
2018-12-22T16:21:38.501Z,172.13
2018-12-22T16:24:07.284Z,159.80
2018-12-22T16:26:36.122Z,161.07
2018-12-22T16:29:11.564Z,167.60
2018-12-22T16:31:40.256Z,164.70
2018-12-22T16:34:09.022Z,168.83
2018-12-22T16:36:38.349Z,158.87
2018-12-22T16:39:08.807Z,169.50
2018-12-22T16:41:37.750Z,168.47
2018-12-22T16:44:09.655Z,164.97
2018-12-22T16:46:38.420Z,167.67
2018-12-22T16:49:07.197Z,164.07
2018-12-22T16:51:35.969Z,160.47
2018-12-22T16:54:05.228Z,157.53
2018-12-22T16:56:33.979Z,157.57
2018-12-22T16:59:02.987Z,173.30
2018-12-22T17:01:41.574Z,163.63
2018-12-22T17:04:10.381Z,159.77
2018-12-22T17:06:40.631Z,173.73
2018-12-22T17:09:11.050Z,179.73
2018-12-22T17:11:40.100Z,173.50
2018-12-22T17:14:08.892Z,160.30
2018-12-22T17:16:38.010Z,164.83
2018-12-22T17:19:07.135Z,156.50
2018-12-22T17:21:43.012Z,148.87
2018-12-22T17:24:16.603Z,147.43
2018-12-22T17:26:46.189Z,139.70
2018-12-22T17:29:14.971Z,135.63
2018-12-22T17:31:44.095Z,137.40
2018-12-22T17:34:13.193Z,139.30
2018-12-22T17:36:41.975Z,148.60
2018-12-22T17:39:12.787Z,148.27
2018-12-22T17:41:42.484Z,149.67
2018-12-22T17:44:11.249Z,140.50
2018-12-22T17:46:40.068Z,148.97
2018-12-22T17:49:08.795Z,137.93
2018-12-22T17:51:37.588Z,139.83
2018-12-22T17:54:06.377Z,131.17
2018-12-22T17:56:35.147Z,132.60
2018-12-22T17:59:03.922Z,138.13
2018-12-22T18:01:33.100Z,136.63
2018-12-22T18:04:01.864Z,133.27
2018-12-22T18:06:30.579Z,139.20
2018-12-22T18:08:59.995Z,122.57
2018-12-22T18:11:28.747Z,130.33
2018-12-22T18:13:57.464Z,131.50
2018-12-22T18:16:26.290Z,136.47
2018-12-22T18:18:55.018Z,134.63
2018-12-22T18:21:23.963Z,131.93
2018-12-22T18:23:53.767Z,138.67
2018-12-22T18:26:22.572Z,136.00
2018-12-22T18:28:51.352Z,139.40
2018-12-22T18:31:20.121Z,129.53
2018-12-22T18:33:48.950Z,143.33
2018-12-22T18:36:17.801Z,141.97
2018-12-22T18:38:51.747Z,135.47
2018-12-22T18:41:20.586Z,131.67
2018-12-22T18:43:49.353Z,138.43
2018-12-22T18:46:18.018Z,128.73
2018-12-22T18:48:46.745Z,132.73
2018-12-22T18:51:15.461Z,142.43
2018-12-22T18:53:44.203Z,138.93
2018-12-22T18:56:13.020Z,133.63
2018-12-22T18:58:41.675Z,143.07
2018-12-22T19:01:10.395Z,168.40
2018-12-22T19:03:44.755Z,169.67
2018-12-22T19:06:09.886Z,180.90
2018-12-22T19:08:38.744Z,202.80
2018-12-22T19:11:10.339Z,195.67
2018-12-22T19:13:39.107Z,196.00
2018-12-22T19:16:07.845Z,196.73
2018-12-22T19:18:36.752Z,197.37
2018-12-22T19:21:05.504Z,188.00
2018-12-22T19:23:34.326Z,199.50
2018-12-22T19:26:03.090Z,196.27
2018-12-22T19:28:31.859Z,200.20
2018-12-22T19:31:00.588Z,206.00
2018-12-22T19:33:29.351Z,195.50
2018-12-22T19:35:58.113Z,205.97
2018-12-22T19:38:26.808Z,202.03
2018-12-22T19:40:55.522Z,205.40
2018-12-22T19:43:24.319Z,191.00
2018-12-22T19:45:53.075Z,207.60
2018-12-22T19:48:21.861Z,211.17
2018-12-22T19:50:50.652Z,192.90
2018-12-22T19:53:19.868Z,190.80
2018-12-22T19:55:48.649Z,189.37
2018-12-22T19:58:17.465Z,192.87
2018-12-22T20:00:46.159Z,204.57
2018-12-22T20:03:14.965Z,203.57
2018-12-22T20:05:43.800Z,195.43
2018-12-22T20:08:12.622Z,193.20
2018-12-22T20:10:41.314Z,186.77
2018-12-22T20:13:10.149Z,177.13
2018-12-22T20:15:38.905Z,173.70
2018-12-22T20:18:07.641Z,168.77
2018-12-22T20:20:36.353Z,171.80
2018-12-22T20:23:05.218Z,171.40
2018-12-22T20:25:34.032Z,192.43
2018-12-22T20:28:02.832Z,187.93
2018-12-22T20:30:31.640Z,176.07
2018-12-22T20:33:00.431Z,181.93
2018-12-22T20:35:29.279Z,183.33
2018-12-22T20:37:58.165Z,183.77
2018-12-22T20:40:26.843Z,182.60
2018-12-22T20:42:55.645Z,187.13
2018-12-22T20:45:24.414Z,197.20
2018-12-22T20:47:53.505Z,188.33
2018-12-22T20:50:22.416Z,182.63
2018-12-22T20:52:51.190Z,187.57
2018-12-22T20:55:21.141Z,185.63
2018-12-22T20:57:50.623Z,179.50
2018-12-22T21:00:20.148Z,189.20
2018-12-22T21:02:49.072Z,190.00
2018-12-22T21:05:19.023Z,187.90
2018-12-22T21:07:48.498Z,178.97
2018-12-22T21:10:17.675Z,186.67
2018-12-22T21:12:46.488Z,188.97
2018-12-22T21:15:15.972Z,191.00
2018-12-22T21:17:44.983Z,184.27
2018-12-22T21:20:13.688Z,186.30
2018-12-22T21:22:42.400Z,174.87
2018-12-22T21:25:11.190Z,166.00
2018-12-22T21:27:39.931Z,178.30
2018-12-22T21:30:09.448Z,177.57
2018-12-22T21:32:38.271Z,189.53
2018-12-22T21:35:07.087Z,175.53
2018-12-22T21:37:35.869Z,185.73
2018-12-22T21:40:06.086Z,192.53
2018-12-22T21:42:39.907Z,173.17
2018-12-22T21:45:08.733Z,179.30
2018-12-22T21:47:37.456Z,184.03
2018-12-22T21:50:06.716Z,187.43
2018-12-22T21:52:35.449Z,175.87
2018-12-22T21:55:04.149Z,185.87
2018-12-22T21:57:32.902Z,184.50
2018-12-22T22:00:01.703Z,174.20
2018-12-22T22:02:30.424Z,176.10
2018-12-22T22:04:59.266Z,173.93
2018-12-22T22:07:28.004Z,177.13
2018-12-22T22:09:57.555Z,173.63
2018-12-22T22:12:26.252Z,173.80
2018-12-22T22:14:54.964Z,181.30
2018-12-22T22:17:23.844Z,185.17
2018-12-22T22:19:52.669Z,175.37
2018-12-22T22:22:21.351Z,178.37
2018-12-22T22:24:50.118Z,183.43
2018-12-22T22:27:18.931Z,183.47
2018-12-22T22:29:47.748Z,188.63
2018-12-22T22:32:16.618Z,182.50
2018-12-22T22:34:45.635Z,184.00
2018-12-22T22:37:14.950Z,178.87
2018-12-22T22:39:43.638Z,181.97
2018-12-22T22:42:12.350Z,198.37
2018-12-22T22:44:41.018Z,183.40
2018-12-22T22:47:09.934Z,173.70
2018-12-22T22:49:38.660Z,164.70
2018-12-22T22:52:09.654Z,158.07
2018-12-22T22:54:38.618Z,160.97
2018-12-22T22:57:07.465Z,160.97
2018-12-22T22:59:36.275Z,155.77
2018-12-22T23:02:04.948Z,166.20
2018-12-22T23:04:33.735Z,170.10
2018-12-22T23:07:02.704Z,171.20
2018-12-22T23:09:34.479Z,171.83
2018-12-22T23:12:03.294Z,162.53
2018-12-22T23:14:32.040Z,166.27
2018-12-22T23:17:00.768Z,167.30
2018-12-22T23:19:29.506Z,188.17
2018-12-22T23:21:58.811Z,182.23
2018-12-22T23:24:27.632Z,197.60
2018-12-22T23:26:57.853Z,192.40
2018-12-22T23:29:26.594Z,197.47
2018-12-22T23:31:55.456Z,210.50
2018-12-22T23:34:28.455Z,200.57
2018-12-22T23:36:57.179Z,208.87
2018-12-22T23:39:25.872Z,194.23
2018-12-22T23:41:56.767Z,198.03
2018-12-22T23:44:25.974Z,209.47
2018-12-22T23:46:54.798Z,186.13
2018-12-22T23:49:23.693Z,198.40
2018-12-22T23:51:54.440Z,197.17
2018-12-22T23:54:23.124Z,197.10
2018-12-22T23:56:51.881Z,194.57
2018-12-22T23:59:20.914Z,191.40
